Levan, UT (84639)

2:17 AM MST on February 06, 2016 (GMT -0700)
KUTSPRIN7 | | Change Station
CLOSE
Current Station
Personal Weather Station
Location: Spring City, UT
Elevation: 5843 ft
Nearby Weather Stations

Elev 5843 ft 39.48 °N, 111.49 °W | Updated 1 minute ago

Mostly Cloudy
Mostly Cloudy
13.5 °F
Feels Like 14 °F
N
0.0
Wind Variable Wind from ESE
Gusts 0.0 mph

Today
High -- | Low -- °F
--% Chance of Precip.
Yesterday
High -- | Low -- °F
Precip. -- in
Pressure 30.76 in
Visibility 10.0 miles
Clouds Clear
Windchill 14 °F
Dew Point 10 °F
Humidity 85%
Rainfall 0.00 in
Snow Depth Not available.
7:30 AM 5:53 PM
Waning Crescent, 6% visible
METAR KPUC 060853Z AUTO 01004KT 10SM CLR M13/M16 A3049 RMK AO2 SLP415 I3000 T11331161 50002
Pressure 30.76 in
Visibility 10.0 miles
Clouds Clear
Windchill 14 °F
Dew Point 10 °F
Humidity 85%
Rainfall 0.00 in
Snow Depth Not available.
7:30 AM 5:53 PM
Waning Crescent, 6% visible
METAR KPUC 060853Z AUTO 01004KT 10SM CLR M13/M16 A3049 RMK AO2 SLP415 I3000 T11331161 50002

10-Day Weather Forecast

Almanac

Astronomy

Feb. 06, 2016 Rise Set
Actual Time
Civil Twilight
Nautical Twilight
Astronomical Twilight
Moon
Length of Visible Light
Length of Day
Tomorrow will be .
, % of the Moon is Illuminated

Today's Extremes

State Highs State Lows

Community

WunderPhotos

Upload Photos

1,890,933 photos uploaded!

WunderBlog® & News

Nearby

Air Quality

  Air Quality AQ Index Pollutant
Not available.

Snow Depth

Station Depth Elevation

Earthquake Activity

City Distance Mag. Time & Date
Minimum magnitude displayed is 2.5.

Coastal Water Temperatures

Place Temperature

Stations

Nearby Weather Stations

Station Location Temp. Windchill Dew Point Humidity Wind Precip. Elev Updated Type
                   

Watches & Warnings

There are currently no watches in effect.